DW2686 Robertsdale AL US current weather conditions

sailwx.info

Wind from 197

Air temperature 23.3° C
Dewpoint 22.7° C

Last reported at 2019-Jul-23 10:01 UTC.
Time now 2019-Jul-23 11:05 UTC

Location: N 30°32' W 087°44'.
View on Google Maps.

See reports from other nearby stations

  
Tides and Currents Weather Stations Pressure Air Temp Water Temp Dewpoint Dewpoint Depression Visibility Wind Speed Wind Dir Waves Ship Positions
date/time (UTC)wind fromknots sea level pressurealtimeterstation pressurevisibilityair tempwater tempwave heightnotes
2019-Jul-23 10:01 197 23.3
2019-Jul-23 09:46 197 23.3
2019-Jul-23 09:31 198 23.3
2019-Jul-23 09:16 200 23.3
2019-Jul-23 09:01 192 2 gusting 5 23.3
2019-Jul-23 08:46 200 23.3
2019-Jul-23 08:31 200 23.3
2019-Jul-23 08:17 200 23.3
2019-Jul-23 08:01 200 23.3
2019-Jul-23 07:46 304 23.3
2019-Jul-23 07:31 268 22.8
2019-Jul-23 07:15 202 22.8
2019-Jul-23 07:02 202 22.8
2019-Jul-23 06:45 202 22.8
2019-Jul-23 06:31 202 23.3
2019-Jul-23 06:16 202 22.8
2019-Jul-23 06:00 202 23.3
2019-Jul-23 05:45 202 23.3
2019-Jul-23 05:30 202 23.3
2019-Jul-23 05:16 202 23.3
2019-Jul-23 05:00 202 23.3
2019-Jul-23 04:45 202 23.3
2019-Jul-23 04:31 202 23.9
2019-Jul-23 04:15 202 23.9
2019-Jul-23 04:01 202 23.9
2019-Jul-23 03:45 202 23.9
2019-Jul-23 03:31 202 24.4
2019-Jul-23 03:15 202 24.4
2019-Jul-23 03:01 202 24.4
2019-Jul-23 02:45 202 24.4
2019-Jul-23 02:31 202 24.4
2019-Jul-23 02:15 202 24.4
2019-Jul-23 02:00 202 25.0
2019-Jul-23 01:45 202 25.0
2019-Jul-23 01:30 202 25.0
2019-Jul-23 01:15 202 25.6
2019-Jul-23 01:00 202 25.6
2019-Jul-23 00:46 202 26.1
2019-Jul-23 00:30 202 26.7
2019-Jul-23 00:15 202 26.7
2019-Jul-23 00:00 202 0 gusting 4 26.7
2019-Jul-22 23:45 179 2 gusting 4 27.2
2019-Jul-22 23:30 211 1 gusting 5 27.2
2019-Jul-22 23:15 209 1 gusting 8 27.8
2019-Jul-22 23:00 207 3 gusting 8 27.8
2019-Jul-22 22:45 193 1 gusting 6 28.3
2019-Jul-22 22:30 171 2 gusting 6 28.3
2019-Jul-22 22:15 186 2 gusting 6 28.9
2019-Jul-22 22:00 200 3 gusting 8 28.9
2019-Jul-22 21:45 200 1 gusting 6 28.9
2019-Jul-22 21:30 198 2 gusting 6 28.3
2019-Jul-22 21:15 204 2 gusting 6 28.9
2019-Jul-22 21:00 204 3 gusting 11 28.9
2019-Jul-22 20:45 225 1 gusting 8 29.4
2019-Jul-22 20:30 137 4 gusting 9 29.4
2019-Jul-22 20:15 173 3 gusting 11 30.0
2019-Jul-22 20:00 195 3 gusting 9 29.4
2019-Jul-22 19:45 183 3 gusting 6 30.6
2019-Jul-22 19:30 219 2 gusting 12 30.0
2019-Jul-22 19:15 207 2 gusting 8 30.6
2019-Jul-22 19:00 169 3 gusting 15 30.6
2019-Jul-22 18:45 316 1 gusting 9 30.6
2019-Jul-22 18:30 238 4 gusting 8 30.0
2019-Jul-22 18:15 166 0 gusting 7 29.4
2019-Jul-22 18:00 155 0 gusting 4 30.0
2019-Jul-22 17:47 200 0 gusting 5 28.9
2019-Jul-22 17:32 148 1 gusting 4 30.0
2019-Jul-22 17:17 156 2 gusting 4 29.4
2019-Jul-22 17:02 143 1 gusting 4 30.0
2019-Jul-22 16:47 325 1 gusting 4 29.4
2019-Jul-22 16:31 051 1 gusting 4 29.4
2019-Jul-22 16:17 312 0 gusting 6 28.9
2019-Jul-22 16:01 311 0 gusting 1 28.9
2019-Jul-22 15:46 346 0 gusting 3 28.3
2019-Jul-22 15:31 315 27.8
2019-Jul-22 15:16 236 27.2
2019-Jul-22 15:01 120 26.1
2019-Jul-22 14:45 051 24.4
2019-Jul-22 14:31 020 24.4
2019-Jul-22 14:15 020 23.9
2019-Jul-22 14:00 020 23.9
2019-Jul-22 13:45 313 23.9
2019-Jul-22 13:30 305 23.9
2019-Jul-22 13:15 298 2 gusting 6 23.9
2019-Jul-22 13:00 217 24.4
2019-Jul-22 12:45 216 23.9
2019-Jul-22 12:30 217 23.3
2019-Jul-22 12:15 216 22.8
2019-Jul-22 12:00 216 22.2
2019-Jul-22 11:45 216 22.2
2019-Jul-22 11:31 216 22.2
2019-Jul-22 11:17 216 0 gusting 2 21.7
2019-Jul-22 11:01 216 21.7
2019-Jul-22 10:47 216 21.7
2019-Jul-22 10:31 216 21.7
2019-Jul-22 10:16 216 21.7
2019-Jul-22 10:01 216 21.1
2019-Jul-22 09:46 216 21.1
2019-Jul-22 09:31 216 21.1
2019-Jul-22 09:16 216 21.1
2019-Jul-22 09:01 216 21.7
2019-Jul-22 08:45 216 21.7
2019-Jul-22 08:33 216 21.7
2019-Jul-22 08:16 216 21.7
2019-Jul-22 08:01 216 21.7
2019-Jul-22 07:46 216 21.7
2019-Jul-22 07:31 216 21.7
2019-Jul-22 07:16 216 22.2
2019-Jul-22 07:00 216 22.2
2019-Jul-22 06:45 216 22.2
2019-Jul-22 06:31 216 22.2
2019-Jul-22 06:16 216 22.2
2019-Jul-22 06:00 216 22.2
2019-Jul-22 05:46 216 22.2
2019-Jul-22 05:30 216 22.8
2019-Jul-22 05:15 216 22.8
2019-Jul-22 05:00 216 22.8
2019-Jul-22 04:45 216 22.8
2019-Jul-22 04:30 216 22.8
2019-Jul-22 04:15 216 22.8
2019-Jul-22 04:00 216 22.8
2019-Jul-22 03:46 216 22.8
2019-Jul-22 03:30 216 23.3
2019-Jul-22 03:15 216 23.3
2019-Jul-22 03:00 216 23.3
2019-Jul-22 02:45 216 23.9
2019-Jul-22 02:30 216 23.9
2019-Jul-22 02:15 216 23.9
2019-Jul-22 02:00 216 24.4
2019-Jul-22 01:45 216 24.4
2019-Jul-22 01:31 216 25.0
2019-Jul-22 01:15 216 25.6
2019-Jul-22 01:00 216 26.1
2019-Jul-22 00:45 216 26.1
2019-Jul-22 00:30 216 26.7
2019-Jul-22 00:15 217 26.7
2019-Jul-22 00:00 212 1 gusting 3 26.7
2019-Jul-21 23:45 276 1 gusting 3 26.7
2019-Jul-21 23:30 202 1 gusting 4 27.2
2019-Jul-21 23:15 196 1 gusting 4 27.2
2019-Jul-21 23:00 199 0 gusting 5 27.8
2019-Jul-21 22:45 183 2 gusting 6 27.8
2019-Jul-21 22:30 189 1 gusting 6 28.3
2019-Jul-21 22:15 208 4 gusting 7 28.3
2019-Jul-21 22:00 212 3 gusting 10 28.9
2019-Jul-21 21:45 215 4 gusting 10 28.9
2019-Jul-21 21:30 172 2 gusting 7 29.4
2019-Jul-21 21:15 221 2 gusting 8 29.4
2019-Jul-21 21:00 174 3 gusting 6 29.4
2019-Jul-21 20:45 198 1 gusting 7 28.9
2019-Jul-21 20:30 200 1 gusting 5 28.9
2019-Jul-21 20:16 210 2 gusting 6 28.9
2019-Jul-21 20:01 141 3 gusting 8 28.9
2019-Jul-21 19:45 191 0 gusting 7 29.4
2019-Jul-21 19:31 225 3 gusting 9 28.9
2019-Jul-21 19:16 190 4 gusting 8 29.4
2019-Jul-21 19:01 157 2 gusting 7 29.4
2019-Jul-21 18:45 156 4 gusting 8 28.9
2019-Jul-21 18:31 221 2 gusting 6 28.3
2019-Jul-21 18:16 158 3 gusting 6 27.8
2019-Jul-21 18:01 183 3 gusting 8 27.2
2019-Jul-21 17:47 169 1 gusting 6 27.2
2019-Jul-21 17:31 174 2 gusting 8 27.2
2019-Jul-21 17:16 184 3 gusting 8 27.2
2019-Jul-21 17:01 168 5 gusting 8 26.1
2019-Jul-21 16:46 138 2 gusting 6 25.6
2019-Jul-21 16:31 140 1 gusting 5 25.0
2019-Jul-21 16:16 147 0 gusting 2 25.0
2019-Jul-21 16:00 221 0 gusting 5 25.0
2019-Jul-21 15:45 208 2 gusting 6 25.6
2019-Jul-21 15:30 173 2 gusting 9 26.7
2019-Jul-21 15:15 208 4 gusting 7 28.9
2019-Jul-21 15:00 042 0 gusting 3 29.4
2019-Jul-21 14:45 039 1 gusting 3 28.9
2019-Jul-21 14:30 355 0 gusting 3 28.9
2019-Jul-21 14:15 046 1 gusting 4 28.3
2019-Jul-21 14:00 336 1 gusting 4 27.8
2019-Jul-21 13:45 033 0 gusting 2 27.2
2019-Jul-21 13:30 360 1 gusting 3 26.1
2019-Jul-21 13:15 355 0 gusting 2 24.4
2019-Jul-21 13:02 295 23.3
2019-Jul-21 12:46 254 23.3
2019-Jul-21 12:31 201 22.8
2019-Jul-21 12:16 201 22.8
2019-Jul-21 12:01 201 22.2
2019-Jul-21 11:46 201 22.2
2019-Jul-21 11:31 201 22.2
2019-Jul-21 11:16 201 22.2
2019-Jul-21 11:01 201 22.2